createdAt,value
2019-03-18T00:00:31.857Z,67.80
2019-03-18T00:03:36.259Z,67.70
2019-03-18T00:06:40.667Z,67.20
2019-03-18T00:09:45.057Z,67.10
2019-03-18T00:12:52.022Z,66.90
2019-03-18T00:15:55.654Z,66.30
2019-03-18T00:19:00.020Z,66.20
2019-03-18T00:22:04.411Z,65.90
2019-03-18T00:25:08.923Z,65.50
2019-03-18T00:28:13.267Z,65.00
2019-03-18T00:31:17.605Z,64.80
2019-03-18T00:34:21.960Z,64.60
2019-03-18T00:37:26.343Z,64.30
2019-03-18T00:40:30.681Z,64.00
2019-03-18T00:43:35.078Z,63.90
2019-03-18T00:46:39.461Z,63.20
2019-03-18T00:49:43.839Z,64.10
2019-03-18T00:52:48.705Z,63.40
2019-03-18T00:55:53.024Z,63.40
2019-03-18T00:58:57.384Z,63.70
2019-03-18T01:02:01.825Z,63.80
2019-03-18T01:05:06.899Z,63.80
2019-03-18T01:08:11.319Z,63.60
2019-03-18T01:11:15.771Z,63.80
2019-03-18T01:14:20.497Z,63.70
2019-03-18T01:17:24.866Z,63.80
2019-03-18T01:20:29.257Z,63.90
2019-03-18T01:23:34.531Z,64.30
2019-03-18T01:26:38.917Z,64.30
2019-03-18T01:29:43.260Z,64.50
2019-03-18T01:32:47.895Z,64.60
2019-03-18T01:35:52.251Z,64.60
2019-03-18T01:38:56.652Z,65.50
2019-03-18T01:42:01.054Z,65.30
2019-03-18T01:45:05.939Z,65.70
2019-03-18T01:48:10.294Z,66.00
2019-03-18T01:51:14.672Z,66.80
2019-03-18T01:54:19.016Z,66.90
2019-03-18T01:57:23.436Z,66.90
2019-03-18T02:00:27.802Z,67.10
2019-03-18T02:03:32.273Z,67.30
2019-03-18T02:06:36.640Z,68.30
2019-03-18T02:09:41.015Z,69.40
2019-03-18T02:12:45.610Z,69.00
2019-03-18T02:15:53.614Z,69.80
2019-03-18T02:18:55.983Z,71.40
2019-03-18T02:22:00.360Z,71.80
2019-03-18T02:25:05.423Z,72.90
2019-03-18T02:28:09.812Z,73.00
2019-03-18T02:31:14.191Z,72.60
2019-03-18T02:34:18.562Z,73.10
2019-03-18T02:37:22.921Z,72.50
2019-03-18T02:40:27.294Z,72.50
2019-03-18T02:43:31.707Z,72.00
2019-03-18T02:46:36.100Z,71.80
2019-03-18T02:49:40.375Z,71.70
2019-03-18T02:52:44.744Z,71.60
2019-03-18T02:55:49.027Z,71.60
2019-03-18T02:58:53.397Z,72.20
2019-03-18T03:01:57.772Z,71.60
2019-03-18T03:05:02.165Z,71.30
2019-03-18T03:08:06.516Z,71.60
2019-03-18T03:11:11.203Z,71.80
2019-03-18T03:14:15.607Z,71.70
2019-03-18T03:17:21.900Z,71.70
2019-03-18T03:20:25.968Z,71.60
2019-03-18T03:23:30.374Z,71.70
2019-03-18T03:26:34.732Z,71.80
2019-03-18T03:29:39.130Z,71.80
2019-03-18T03:32:43.800Z,72.30
2019-03-18T03:35:48.679Z,72.20
2019-03-18T03:38:53.029Z,72.70
2019-03-18T03:41:57.417Z,71.90
2019-03-18T03:45:01.800Z,73.10
2019-03-18T03:48:06.114Z,73.20
2019-03-18T03:51:10.477Z,73.30
2019-03-18T03:54:14.878Z,73.60
2019-03-18T03:57:19.327Z,73.40
2019-03-18T04:00:23.789Z,73.40
2019-03-18T04:03:38.133Z,74.10
2019-03-18T04:06:34.281Z,73.20
2019-03-18T04:09:38.644Z,73.30
2019-03-18T04:12:43.060Z,73.30
2019-03-18T04:15:47.443Z,73.10
2019-03-18T04:18:51.848Z,72.90
2019-03-18T04:21:56.213Z,73.40
2019-03-18T04:25:00.635Z,73.50
2019-03-18T04:28:04.943Z,73.70
2019-03-18T04:31:09.325Z,75.10
2019-03-18T04:34:13.687Z,74.30
2019-03-18T04:37:18.077Z,74.20
2019-03-18T04:40:22.436Z,74.00
2019-03-18T04:43:26.812Z,74.00
2019-03-18T04:46:31.222Z,73.90
2019-03-18T04:49:35.618Z,74.20
2019-03-18T04:52:39.987Z,74.10
2019-03-18T04:55:44.394Z,74.40
2019-03-18T04:58:48.745Z,74.80
2019-03-18T05:01:55.268Z,74.80
2019-03-18T05:04:59.624Z,74.90
2019-03-18T05:08:04.256Z,75.10
2019-03-18T05:11:08.615Z,75.10
2019-03-18T05:14:13.076Z,75.20
2019-03-18T05:17:26.064Z,75.30
2019-03-18T05:20:23.549Z,75.20
2019-03-18T05:23:27.856Z,75.50
2019-03-18T05:26:32.176Z,75.40
2019-03-18T05:29:36.521Z,75.50
2019-03-18T05:32:40.998Z,75.60
2019-03-18T05:35:45.292Z,75.30
2019-03-18T05:38:49.961Z,75.30
2019-03-18T05:41:54.309Z,75.30
2019-03-18T05:44:58.708Z,75.30
2019-03-18T05:48:03.016Z,75.30
2019-03-18T05:51:07.455Z,75.40
2019-03-18T05:54:11.800Z,75.60
2019-03-18T05:57:16.125Z,75.50
2019-03-18T06:00:20.471Z,75.30
2019-03-18T06:03:24.871Z,75.40
2019-03-18T06:06:29.264Z,75.60
2019-03-18T06:09:33.636Z,75.60
2019-03-18T06:12:37.980Z,75.20
2019-03-18T06:15:42.388Z,75.00
2019-03-18T06:18:46.760Z,75.40
2019-03-18T06:21:51.172Z,75.30
2019-03-18T06:24:55.551Z,75.20
2019-03-18T06:28:00.032Z,75.40
2019-03-18T06:31:04.324Z,75.30
2019-03-18T06:34:08.734Z,75.20
2019-03-18T06:37:13.111Z,75.50
2019-03-18T06:40:18.114Z,75.60
2019-03-18T06:43:22.556Z,75.90
2019-03-18T06:46:27.009Z,75.90
2019-03-18T06:49:32.587Z,76.20
2019-03-18T06:52:36.943Z,76.30
2019-03-18T06:55:41.346Z,76.30
2019-03-18T06:58:45.762Z,76.40
2019-03-18T07:01:50.124Z,76.20
2019-03-18T07:04:54.538Z,76.40
2019-03-18T07:07:58.894Z,76.60
2019-03-18T07:11:03.293Z,76.70
2019-03-18T07:14:07.675Z,76.80
2019-03-18T07:17:12.072Z,76.80
2019-03-18T07:20:16.461Z,76.70
2019-03-18T07:23:20.875Z,76.80
2019-03-18T07:26:25.176Z,76.80
2019-03-18T07:29:29.555Z,77.50
2019-03-18T07:32:33.917Z,76.60
2019-03-18T07:35:38.326Z,76.60
2019-03-18T07:38:42.682Z,76.40
2019-03-18T07:41:47.090Z,76.20
2019-03-18T07:44:52.387Z,76.00
2019-03-18T07:47:56.773Z,75.70
2019-03-18T07:51:01.166Z,75.30
2019-03-18T07:54:05.563Z,75.30
2019-03-18T07:57:09.850Z,75.00
2019-03-18T08:00:14.378Z,74.90
2019-03-18T08:03:18.688Z,74.40
2019-03-18T08:06:23.113Z,75.70
2019-03-18T08:09:28.853Z,76.90
2019-03-18T08:12:33.210Z,76.80
2019-03-18T08:15:38.074Z,78.50
2019-03-18T08:18:43.587Z,77.70
2019-03-18T08:21:48.373Z,76.00
2019-03-18T08:24:52.931Z,75.80
2019-03-18T08:27:58.910Z,75.10
2019-03-18T08:31:04.064Z,75.00
2019-03-18T08:34:08.534Z,74.60
2019-03-18T08:37:12.957Z,74.30
2019-03-18T08:40:17.972Z,73.90
2019-03-18T08:43:22.393Z,73.60
2019-03-18T08:46:26.823Z,73.40
2019-03-18T08:49:31.249Z,73.30
2019-03-18T08:52:35.695Z,73.20
2019-03-18T08:55:40.210Z,72.70
2019-03-18T08:58:44.735Z,72.80
2019-03-18T09:01:49.534Z,72.90
2019-03-18T09:04:54.062Z,72.90
2019-03-18T09:07:58.472Z,73.20
2019-03-18T09:11:03.266Z,78.30
2019-03-18T09:14:07.690Z,77.80
2019-03-18T09:17:12.084Z,79.10
2019-03-18T09:20:16.515Z,78.10
2019-03-18T09:23:20.917Z,78.00
2019-03-18T09:26:25.322Z,77.70
2019-03-18T09:29:29.753Z,78.50
2019-03-18T09:32:34.172Z,75.90
2019-03-18T09:35:38.542Z,76.90
2019-03-18T09:38:42.976Z,77.40
2019-03-18T09:41:47.361Z,76.70
2019-03-18T09:44:52.077Z,75.90
2019-03-18T09:47:56.512Z,75.20
2019-03-18T09:51:00.942Z,74.60
2019-03-18T09:54:06.548Z,74.20
2019-03-18T09:57:10.931Z,73.70
2019-03-18T10:00:16.572Z,73.20
2019-03-18T10:03:21.033Z,71.30
2019-03-18T10:06:25.405Z,70.10
2019-03-18T10:09:29.939Z,70.10
2019-03-18T10:12:36.183Z,70.10
2019-03-18T10:15:40.647Z,70.30
2019-03-18T10:18:45.123Z,70.10
2019-03-18T10:21:49.612Z,70.00
2019-03-18T10:24:53.935Z,69.80
2019-03-18T10:27:58.527Z,69.80
2019-03-18T10:31:02.906Z,69.50
2019-03-18T10:34:07.302Z,69.70
2019-03-18T10:37:11.860Z,69.50
2019-03-18T10:40:16.257Z,69.40
2019-03-18T10:43:20.602Z,69.30
2019-03-18T10:46:26.333Z,69.10
2019-03-18T10:49:32.009Z,68.90
2019-03-18T10:52:36.536Z,68.90
2019-03-18T10:55:40.966Z,69.00
2019-03-18T10:58:45.361Z,69.00
2019-03-18T11:01:49.709Z,69.00
2019-03-18T11:04:54.324Z,68.60
2019-03-18T11:07:58.668Z,68.40
2019-03-18T11:11:03.005Z,68.10
2019-03-18T11:14:07.341Z,67.80
2019-03-18T11:17:11.708Z,67.50
2019-03-18T11:20:16.181Z,67.50
2019-03-18T11:23:20.633Z,67.40
2019-03-18T11:26:24.980Z,67.50
2019-03-18T11:29:29.379Z,67.40
2019-03-18T11:32:33.739Z,67.30
2019-03-18T11:35:38.155Z,67.50
2019-03-18T11:38:42.810Z,67.50
2019-03-18T11:41:47.211Z,67.80
2019-03-18T11:44:51.568Z,66.10
2019-03-18T11:47:56.046Z,67.30
2019-03-18T11:51:00.388Z,68.80
2019-03-18T11:54:04.946Z,68.70
2019-03-18T11:57:09.294Z,66.80
2019-03-18T12:00:15.759Z,68.00
2019-03-18T12:03:20.105Z,66.60
2019-03-18T12:06:24.507Z,65.80
2019-03-18T12:09:28.903Z,65.80
2019-03-18T12:12:33.311Z,66.90
2019-03-18T12:15:37.677Z,66.20
2019-03-18T12:18:48.029Z,65.10
2019-03-18T12:21:58.129Z,65.90
2019-03-18T12:25:02.621Z,66.20
2019-03-18T12:28:07.129Z,66.70
2019-03-18T12:31:11.520Z,67.10
2019-03-18T12:34:15.866Z,67.40
2019-03-18T12:37:20.273Z,66.80
2019-03-18T12:40:24.633Z,67.10
2019-03-18T12:43:29.015Z,65.50
2019-03-18T12:46:33.352Z,62.60
2019-03-18T12:49:37.715Z,60.70
2019-03-18T12:52:43.200Z,60.90
2019-03-18T12:55:47.707Z,61.10
2019-03-18T12:59:11.152Z,61.10
2019-03-18T13:02:15.561Z,61.60
2019-03-18T13:05:19.942Z,60.00
2019-03-18T13:08:24.320Z,60.60
2019-03-18T13:11:28.704Z,59.00
2019-03-18T13:14:33.114Z,59.30
2019-03-18T13:17:37.474Z,59.90
2019-03-18T13:20:41.858Z,58.70
2019-03-18T13:23:46.206Z,58.50
2019-03-18T13:26:50.580Z,58.30
2019-03-18T13:29:54.988Z,58.50
2019-03-18T13:32:59.324Z,58.40
2019-03-18T13:36:03.787Z,58.50
2019-03-18T13:39:09.559Z,58.70
2019-03-18T13:42:13.985Z,58.50
2019-03-18T13:45:18.726Z,58.40
2019-03-18T13:48:23.081Z,59.00
2019-03-18T13:51:27.561Z,58.80
2019-03-18T13:54:32.463Z,59.60
2019-03-18T13:57:36.991Z,58.50
2019-03-18T14:00:41.430Z,58.80
2019-03-18T14:03:47.487Z,59.20
2019-03-18T14:06:52.593Z,58.80
2019-03-18T14:09:57.622Z,59.20
2019-03-18T14:13:02.015Z,58.60
2019-03-18T14:16:07.079Z,59.40
2019-03-18T14:19:12.003Z,57.90
2019-03-18T14:22:17.670Z,57.70
2019-03-18T14:25:22.401Z,56.80
2019-03-18T14:28:27.040Z,55.30
2019-03-18T14:31:32.760Z,54.40
2019-03-18T14:34:37.637Z,55.10
2019-03-18T14:37:42.001Z,53.90
2019-03-18T14:40:46.394Z,53.60
2019-03-18T14:43:50.780Z,54.00
2019-03-18T14:46:55.615Z,53.60
2019-03-18T14:49:59.983Z,52.90
2019-03-18T14:53:04.395Z,53.20
2019-03-18T14:56:08.762Z,53.30
2019-03-18T14:59:13.207Z,52.50
2019-03-18T15:02:17.568Z,52.60
2019-03-18T15:05:22.019Z,53.30
2019-03-18T15:08:26.396Z,53.20
2019-03-18T15:11:30.805Z,53.40
2019-03-18T15:14:35.159Z,53.60
2019-03-18T15:17:39.472Z,53.70
2019-03-18T15:20:45.313Z,53.20
2019-03-18T15:23:49.689Z,54.00
2019-03-18T15:26:54.056Z,53.50
2019-03-18T15:29:58.483Z,53.60
2019-03-18T15:33:04.103Z,53.90
2019-03-18T15:36:08.533Z,53.80
2019-03-18T15:39:12.916Z,53.80
2019-03-18T15:42:17.324Z,53.70
2019-03-18T15:45:21.697Z,54.10
2019-03-18T15:48:26.255Z,52.90
2019-03-18T15:51:30.811Z,53.60
2019-03-18T15:54:36.043Z,53.80
2019-03-18T15:57:41.485Z,54.50
2019-03-18T16:00:45.950Z,54.30
2019-03-18T16:03:50.461Z,54.40
2019-03-18T16:06:54.840Z,55.10
2019-03-18T16:10:01.477Z,55.00
2019-03-18T16:13:06.099Z,55.10
2019-03-18T16:16:10.504Z,54.70
2019-03-18T16:19:15.010Z,55.00
2019-03-18T16:22:23.711Z,55.40
2019-03-18T16:25:28.381Z,55.70
2019-03-18T16:28:32.783Z,56.50
2019-03-18T16:31:39.237Z,57.50
2019-03-18T16:34:43.385Z,58.10
2019-03-18T16:37:47.789Z,58.30
2019-03-18T16:40:52.277Z,58.30
2019-03-18T16:43:56.684Z,59.10
2019-03-18T16:47:01.068Z,58.50
2019-03-18T16:50:06.342Z,58.40
2019-03-18T16:53:10.725Z,57.70
2019-03-18T16:56:15.090Z,56.70
2019-03-18T16:59:19.462Z,55.70
2019-03-18T17:02:23.873Z,55.50
2019-03-18T17:05:28.322Z,53.80
2019-03-18T17:08:32.823Z,52.90
2019-03-18T17:11:37.202Z,53.80
2019-03-18T17:14:41.656Z,54.00
2019-03-18T17:17:46.038Z,54.40
2019-03-18T17:20:51.647Z,55.00
2019-03-18T17:23:56.011Z,54.90
2019-03-18T17:27:01.417Z,55.40
2019-03-18T17:30:07.565Z,55.20
2019-03-18T17:33:12.021Z,54.40
2019-03-18T17:36:16.448Z,53.80
2019-03-18T17:39:20.829Z,55.10
2019-03-18T17:42:25.218Z,54.40
2019-03-18T17:45:29.549Z,54.60
2019-03-18T17:48:33.901Z,54.60
2019-03-18T17:51:38.340Z,54.70
2019-03-18T17:54:44.768Z,54.70
2019-03-18T17:57:48.848Z,54.80
2019-03-18T18:00:53.497Z,54.90
2019-03-18T18:03:59.511Z,54.80
2019-03-18T18:07:04.469Z,54.90
2019-03-18T18:10:09.200Z,55.00
2019-03-18T18:13:13.894Z,55.10
2019-03-18T18:16:18.382Z,55.10
2019-03-18T18:19:22.866Z,55.40
2019-03-18T18:22:27.314Z,55.60
2019-03-18T18:25:31.877Z,55.70
2019-03-18T18:28:36.296Z,55.80
2019-03-18T18:31:40.697Z,56.00
2019-03-18T18:34:45.165Z,56.90
2019-03-18T18:37:49.600Z,56.30
2019-03-18T18:40:54.053Z,56.50
2019-03-18T18:44:00.329Z,56.60
2019-03-18T18:47:06.460Z,56.70
2019-03-18T18:50:10.915Z,56.80
2019-03-18T18:53:25.666Z,57.10
2019-03-18T18:56:21.724Z,57.20
2019-03-18T18:59:26.200Z,57.40
2019-03-18T19:02:30.615Z,57.50
2019-03-18T19:05:35.172Z,57.70
2019-03-18T19:08:41.726Z,57.80
2019-03-18T19:11:46.160Z,58.00
2019-03-18T19:14:50.554Z,58.20
2019-03-18T19:17:56.947Z,58.30
2019-03-18T19:21:01.312Z,58.60
2019-03-18T19:24:05.739Z,58.50
2019-03-18T19:27:10.116Z,58.60
2019-03-18T19:30:17.079Z,58.70
2019-03-18T19:33:21.840Z,59.00
2019-03-18T19:36:27.493Z,59.20
2019-03-18T19:39:31.877Z,59.30
2019-03-18T19:42:36.356Z,59.40
2019-03-18T19:45:41.156Z,59.50
2019-03-18T19:48:45.577Z,59.70
2019-03-18T19:51:50.123Z,60.00
2019-03-18T19:54:54.491Z,60.00
2019-03-18T19:58:00.023Z,60.10
2019-03-18T20:01:04.907Z,60.20
2019-03-18T20:04:09.304Z,60.50
2019-03-18T20:07:13.723Z,60.40
2019-03-18T20:10:23.967Z,60.60
2019-03-18T20:13:28.425Z,60.80
2019-03-18T20:16:33.710Z,60.90
2019-03-18T20:19:38.123Z,61.10
2019-03-18T20:22:42.639Z,61.10
2019-03-18T20:25:47.072Z,61.20
2019-03-18T20:28:51.501Z,61.20
2019-03-18T20:31:55.929Z,61.40
2019-03-18T20:35:00.376Z,61.50
2019-03-18T20:38:06.963Z,61.60
2019-03-18T20:41:11.555Z,61.70
2019-03-18T20:44:19.449Z,61.80
2019-03-18T20:47:24.344Z,61.80
2019-03-18T20:50:29.155Z,61.80
2019-03-18T20:53:33.624Z,61.90
2019-03-18T20:56:38.461Z,62.10
2019-03-18T20:59:42.795Z,62.10
2019-03-18T21:02:47.583Z,62.30
2019-03-18T21:05:53.925Z,62.40
2019-03-18T21:08:58.781Z,62.50
2019-03-18T21:12:03.331Z,62.60
2019-03-18T21:15:09.106Z,62.60
2019-03-18T21:18:13.535Z,62.70
2019-03-18T21:21:18.061Z,62.70
2019-03-18T21:24:23.244Z,62.80
2019-03-18T21:27:28.170Z,62.60
2019-03-18T21:30:32.568Z,62.60
2019-03-18T21:33:37.500Z,62.80
2019-03-18T21:36:42.050Z,62.70
2019-03-18T21:39:48.037Z,62.70
2019-03-18T21:42:52.471Z,62.70
2019-03-18T21:45:57.125Z,62.60
2019-03-18T21:49:01.483Z,62.60
2019-03-18T21:52:06.206Z,62.80
2019-03-18T21:55:10.983Z,62.60
2019-03-18T21:58:16.572Z,62.60
2019-03-18T22:01:20.996Z,62.60
2019-03-18T22:04:25.404Z,62.50
2019-03-18T22:07:29.843Z,62.60
2019-03-18T22:10:34.267Z,62.60
2019-03-18T22:13:38.643Z,62.50
2019-03-18T22:16:43.071Z,62.50
2019-03-18T22:19:47.424Z,62.50
2019-03-18T22:22:51.758Z,62.40
2019-03-18T22:25:56.111Z,62.40
2019-03-18T22:29:00.508Z,62.40
2019-03-18T22:32:04.851Z,62.30
2019-03-18T22:35:09.307Z,62.20
2019-03-18T22:38:13.875Z,62.20
2019-03-18T22:41:20.344Z,62.20
2019-03-18T22:44:25.031Z,62.20
2019-03-18T22:47:29.438Z,62.10
2019-03-18T22:50:33.776Z,62.20
2019-03-18T22:53:38.132Z,62.10
2019-03-18T22:56:42.410Z,62.10
2019-03-18T22:59:46.784Z,62.10
2019-03-18T23:02:51.491Z,62.00
2019-03-18T23:05:57.009Z,62.00
2019-03-18T23:09:01.431Z,62.00
2019-03-18T23:12:05.837Z,62.00
2019-03-18T23:15:11.281Z,62.00
2019-03-18T23:18:15.804Z,62.00
2019-03-18T23:21:20.237Z,62.00
2019-03-18T23:24:24.712Z,62.00
2019-03-18T23:27:29.201Z,62.10
2019-03-18T23:30:33.713Z,61.90
2019-03-18T23:33:38.544Z,61.90
2019-03-18T23:36:43.046Z,61.80
2019-03-18T23:39:47.616Z,61.90
2019-03-18T23:42:52.211Z,62.00
2019-03-18T23:45:56.688Z,62.00
2019-03-18T23:49:01.196Z,62.00
2019-03-18T23:52:07.300Z,62.00
2019-03-18T23:55:18.827Z,61.90
2019-03-18T23:58:18.227Z,62.00
